Time;durP1;ratioP1;P1;durP2;ratioP2;P2;SDS_P1;SDS_P2;PMS_P1;PMS_P2;Temp;Humidity;BMP_temperature;BMP_pressure;BME280_temperature;BME280_humidity;BME280_pressure;Samples;Min_cycle;Max_cycle;Signal;HPM_P1;HPM_P2
2021/09/17 00:00:08;;;;;;;5.43;2.70;;;;;;;16.87;nan;101023.00;5060571;28;20202;-75
2021/09/17 00:02:34;;;;;;;6.10;2.23;;;;;;;16.62;nan;101013.63;5060508;28;20169;-69
2021/09/17 00:04:59;;;;;;;6.13;2.17;;;;;;;16.74;nan;101028.41;5059474;28;20165;-70
2021/09/17 00:07:25;;;;;;;2.93;2.30;;;;;;;16.43;nan;101023.47;5060389;28;20169;-69
2021/09/17 00:09:51;;;;;;;2.90;2.50;;;;;;;16.95;nan;101026.44;5060448;28;20235;-69
2021/09/17 00:12:16;;;;;;;4.80;2.37;;;;;;;17.34;nan;101022.41;5060183;28;20416;-69
2021/09/17 00:14:41;;;;;;;5.70;2.30;;;;;;;16.77;nan;101022.22;5060332;28;20209;-71
2021/09/17 00:17:07;;;;;;;2.90;2.33;;;;;;;16.86;nan;101021.25;5060546;28;20161;-73
2021/09/17 00:19:32;;;;;;;3.93;2.30;;;;;;;17.05;nan;101019.28;5052971;28;20174;-71
2021/09/17 00:21:58;;;;;;;3.20;2.60;;;;;;;17.02;nan;101017.56;5048492;28;20268;-71
2021/09/17 00:24:23;;;;;;;11.07;8.40;;;;;;;17.24;nan;101009.38;5053462;28;20570;-72
2021/09/17 00:26:49;;;;;;;4.23;2.70;;;;;;;17.20;nan;101012.94;5060041;28;20166;-72
2021/09/17 00:29:14;;;;;;;3.60;2.70;;;;;;;16.90;nan;101012.44;5041053;28;20174;-71
2021/09/17 00:31:39;;;;;;;2.97;2.40;;;;;;;16.86;nan;101011.59;5040555;28;20558;-71
2021/09/17 00:34:05;;;;;;;3.50;2.90;;;;;;;16.67;nan;101010.94;5040084;28;20445;-71
2021/09/17 00:36:31;;;;;;;3.20;2.90;;;;;;;16.91;nan;101008.94;5040152;28;20166;-71
2021/09/17 00:38:56;;;;;;;10.13;2.93;;;;;;;17.27;nan;101011.97;5039904;28;20224;-72
2021/09/17 00:41:22;;;;;;;4.93;2.60;;;;;;;16.93;nan;101023.81;5041018;28;20166;-70
2021/09/17 00:43:47;;;;;;;5.60;2.80;;;;;;;17.12;nan;101024.47;5043134;28;20493;-69
2021/09/17 00:46:12;;;;;;;3.30;2.20;;;;;;;17.04;nan;101018.41;5043016;28;20300;-69
2021/09/17 00:48:38;;;;;;;3.70;2.50;;;;;;;16.68;nan;101028.47;5041705;28;20174;-68
2021/09/17 00:51:03;;;;;;;6.60;2.60;;;;;;;16.93;nan;101023.81;5039815;28;20256;-71
2021/09/17 00:53:33;;;;;;;3.07;2.47;;;;;;;16.72;nan;101018.78;5047566;28;20216;-71
2021/09/17 00:55:59;;;;;;;3.30;2.23;;;;;;;16.46;nan;101018.16;5058954;28;20543;-71
2021/09/17 00:58:24;;;;;;;3.83;2.47;;;;;;;16.80;nan;101017.78;5059399;28;20456;-71
2021/09/17 01:00:50;;;;;;;3.90;2.10;;;;;;;16.61;nan;101016.25;5060324;28;20161;-71
2021/09/17 01:03:15;;;;;;;4.63;2.60;;;;;;;16.72;nan;101008.25;5059550;28;20234;-71
2021/09/17 01:05:40;;;;;;;6.57;2.20;;;;;;;16.76;nan;101018.72;5059243;28;20188;-71
2021/09/17 01:08:05;;;;;;;4.07;2.20;;;;;;;16.91;nan;101015.06;5059429;28;20209;-71
2021/09/17 01:10:31;;;;;;;7.80;3.53;;;;;;;17.13;nan;101013.03;5059097;28;20238;-72
2021/09/17 01:12:57;;;;;;;4.70;3.10;;;;;;;17.07;nan;101015.75;5059144;28;20174;-73
2021/09/17 01:15:23;;;;;;;5.30;2.60;;;;;;;16.84;nan;101018.63;5059340;28;20161;-71
2021/09/17 01:17:48;;;;;;;3.17;2.20;;;;;;;17.13;nan;101012.16;5059131;28;20439;-71
2021/09/17 01:20:16;;;;;;;2.97;2.17;;;;;;;16.63;nan;101014.50;5059146;28;20215;-71
2021/09/17 01:22:43;;;;;;;2.97;2.20;;;;;;;16.90;nan;101015.06;5059595;28;20245;-70
2021/09/17 01:25:10;;;;;;;9.10;2.27;;;;;;;16.91;nan;101009.78;5058819;28;20515;-70
2021/09/17 01:27:35;;;;;;;3.90;2.20;;;;;;;16.82;nan;101008.13;5058219;28;20428;-71
2021/09/17 01:30:01;;;;;;;5.70;2.30;;;;;;;16.87;nan;101005.41;5059119;28;20440;-73
2021/09/17 01:32:26;;;;;;;4.07;1.90;;;;;;;16.50;nan;101001.44;5058934;28;20239;-74
2021/09/17 01:34:51;;;;;;;4.23;1.90;;;;;;;16.34;nan;100997.25;5058568;28;20172;-72
2021/09/17 01:37:17;;;;;;;3.10;1.93;;;;;;;16.33;nan;100993.75;5058532;28;20169;-70
2021/09/17 01:39:42;;;;;;;2.57;2.03;;;;;;;16.71;nan;101001.22;5058758;28;20589;-71
2021/09/17 01:42:07;;;;;;;3.60;1.93;;;;;;;16.74;nan;100990.69;5058012;28;20215;-70
2021/09/17 01:44:36;;;;;;;3.70;2.07;;;;;;;16.73;nan;100995.06;5059013;28;20174;-71
2021/09/17 01:47:02;;;;;;;3.57;2.13;;;;;;;16.73;nan;100994.19;5058542;28;20162;-71
2021/09/17 01:49:27;;;;;;;7.23;1.97;;;;;;;16.44;nan;100992.75;5058405;28;20665;-71
2021/09/17 01:51:53;;;;;;;3.63;1.90;;;;;;;16.74;nan;101002.06;5058936;28;20489;-71
2021/09/17 01:54:18;;;;;;;2.80;1.80;;;;;;;16.82;nan;100992.31;5058434;28;20196;-71
2021/09/17 01:56:44;;;;;;;2.30;1.93;;;;;;;16.70;nan;101000.38;5058479;28;20174;-71
2021/09/17 01:59:09;;;;;;;2.60;2.00;;;;;;;16.67;nan;100995.16;5041085;28;20260;-71
2021/09/17 02:01:34;;;;;;;2.63;1.60;;;;;;;16.72;nan;100997.72;5043093;28;20193;-71
2021/09/17 02:04:01;;;;;;;3.20;2.00;;;;;;;16.93;nan;100996.63;5038398;28;20174;-71
2021/09/17 02:06:26;;;;;;;6.90;2.47;;;;;;;17.13;nan;101002.50;5038378;28;20175;-71
2021/09/17 02:08:52;;;;;;;3.97;2.43;;;;;;;16.77;nan;100999.41;5038306;28;20392;-71
2021/09/17 02:11:18;;;;;;;4.50;1.90;;;;;;;16.73;nan;100995.06;5038694;28;20575;-71
2021/09/17 02:13:43;;;;;;;4.00;1.90;;;;;;;16.73;nan;100995.06;5038281;28;20427;-71
2021/09/17 02:16:09;;;;;;;5.20;2.43;;;;;;;17.04;nan;100994.72;5054202;28;20578;-71
2021/09/17 02:18:34;;;;;;;8.67;2.63;;;;;;;16.90;nan;100988.75;5078592;28;20161;-71
2021/09/17 02:21:00;;;;;;;6.93;2.30;;;;;;;16.92;nan;100987.84;5078209;28;20212;-70
2021/09/17 02:23:25;;;;;;;3.10;1.90;;;;;;;16.69;nan;100990.72;5077969;28;20165;-71
2021/09/17 02:25:50;;;;;;;3.43;1.93;;;;;;;16.50;nan;100993.56;5078275;28;20219;-71
2021/09/17 02:28:16;;;;;;;6.90;1.97;;;;;;;16.83;nan;100985.28;5078126;28;20183;-72
2021/09/17 02:30:41;;;;;;;3.33;2.10;;;;;;;16.98;nan;100986.88;5078012;28;20523;-71
2021/09/17 02:33:06;;;;;;;6.83;2.87;;;;;;;16.90;nan;100991.38;5078902;28;20161;-71
2021/09/17 02:35:32;;;;;;;3.17;2.00;;;;;;;17.08;nan;100992.91;5077940;28;20173;-71
2021/09/17 02:37:57;;;;;;;7.13;2.80;;;;;;;17.20;nan;100989.22;5078208;28;20164;-71
2021/09/17 02:40:23;;;;;;;2.93;1.70;;;;;;;17.15;nan;100986.66;5078524;28;20189;-71
2021/09/17 02:42:48;;;;;;;3.97;2.07;;;;;;;17.05;nan;100990.31;5078158;28;20218;-73
2021/09/17 02:45:14;;;;;;;4.63;2.63;;;;;;;16.72;nan;100987.19;5077963;28;20184;-71
2021/09/17 02:47:41;;;;;;;2.73;1.80;;;;;;;16.79;nan;100994.09;5078909;28;20448;-71
2021/09/17 02:50:07;;;;;;;5.27;2.20;;;;;;;16.64;nan;100995.16;5082090;28;20469;-71
2021/09/17 02:52:33;;;;;;;2.87;2.10;;;;;;;16.50;nan;100993.56;5082036;28;20415;-71
2021/09/17 02:54:58;;;;;;;4.53;2.50;;;;;;;17.03;nan;100985.06;5082200;28;20674;-72
2021/09/17 02:57:23;;;;;;;1.80;1.50;;;;;;;16.78;nan;100989.75;5081998;28;20447;-72
2021/09/17 02:59:49;;;;;;;3.30;1.60;;;;;;;16.52;nan;100992.66;5081922;28;20474;-72
2021/09/17 03:02:14;;;;;;;2.53;2.10;;;;;;;16.71;nan;100995.97;5082378;28;20165;-72
2021/09/17 03:04:40;;;;;;;2.03;1.63;;;;;;;16.66;nan;100986.38;5081677;28;20173;-71
2021/09/17 03:07:05;;;;;;;3.53;2.13;;;;;;;17.07;nan;100984.13;5081928;28;20173;-71
2021/09/17 03:09:31;;;;;;;5.73;2.03;;;;;;;16.95;nan;100984.28;5082119;28;20172;-71
2021/09/17 03:11:56;;;;;;;5.70;3.47;;;;;;;16.73;nan;100987.16;5081714;28;20210;-71
2021/09/17 03:14:22;;;;;;;2.90;1.80;;;;;;;17.05;nan;100982.41;5081607;28;20442;-71
2021/09/17 03:16:49;;;;;;;2.40;2.00;;;;;;;16.86;nan;100985.25;5081913;28;20168;-71
2021/09/17 03:19:14;;;;;;;2.73;2.37;;;;;;;16.78;nan;100984.50;5081349;28;20204;-72
2021/09/17 03:21:39;;;;;;;5.63;3.67;;;;;;;17.06;nan;100992.06;5081687;28;20455;-72
2021/09/17 03:24:05;;;;;;;2.40;1.50;;;;;;;16.49;nan;100989.19;5081716;28;20165;-72
2021/09/17 03:26:30;;;;;;;2.73;1.90;;;;;;;16.72;nan;100993.31;5083210;28;20200;-72
2021/09/17 03:28:56;;;;;;;3.80;1.50;;;;;;;16.83;nan;100995.81;5085695;28;20484;-72
2021/09/17 03:31:21;;;;;;;3.10;1.70;;;;;;;16.80;nan;100994.09;5087069;28;20192;-72
2021/09/17 03:33:46;;;;;;;4.60;3.10;;;;;;;17.24;nan;100994.44;5081914;28;20169;-71
2021/09/17 03:36:12;;;;;;;2.50;1.60;;;;;;;16.79;nan;101000.28;5080800;28;20240;-71
2021/09/17 03:38:38;;;;;;;5.20;2.70;;;;;;;16.71;nan;100994.22;5081105;28;20169;-71
2021/09/17 03:41:04;;;;;;;4.57;1.60;;;;;;;16.60;nan;100988.19;5081032;28;20165;-72
2021/09/17 03:43:29;;;;;;;2.80;1.70;;;;;;;16.80;nan;100991.47;5080804;28;20494;-71
2021/09/17 03:45:55;;;;;;;2.40;1.70;;;;;;;16.65;nan;100991.66;5081538;28;20403;-72
2021/09/17 03:48:20;;;;;;;4.37;3.10;;;;;;;16.60;nan;100988.19;5081205;28;20220;-71
2021/09/17 03:50:45;;;;;;;2.90;1.97;;;;;;;16.50;nan;100987.44;5080663;28;20205;-71
2021/09/17 03:53:11;;;;;;;4.60;2.33;;;;;;;16.54;nan;100985.66;5081312;28;20177;-72
2021/09/17 03:55:36;;;;;;;2.37;1.93;;;;;;;16.16;nan;100983.38;5080928;28;20604;-72
2021/09/17 03:58:03;;;;;;;2.43;1.70;;;;;;;16.33;nan;100987.59;5080838;28;20235;-71
2021/09/17 04:00:28;;;;;;;4.93;2.70;;;;;;;16.75;nan;100979.25;5080849;28;20412;-71
2021/09/17 04:02:53;;;;;;;3.50;2.27;;;;;;;16.91;nan;100982.59;5080660;28;20430;-71
2021/09/17 04:05:19;;;;;;;2.43;2.10;;;;;;;16.77;nan;100991.50;5080464;28;20192;-71
2021/09/17 04:07:44;;;;;;;2.23;1.87;;;;;;;16.53;nan;100997.06;5081065;28;20196;-71
2021/09/17 04:10:12;;;;;;;3.50;2.30;;;;;;;16.61;nan;100996.06;5081785;28;20212;-71
2021/09/17 04:12:38;;;;;;;2.60;2.20;;;;;;;16.54;nan;100994.41;5080482;28;20187;-71
2021/09/17 04:15:04;;;;;;;4.43;2.90;;;;;;;16.47;nan;100993.59;5080859;28;20407;-71
2021/09/17 04:17:29;;;;;;;1.90;1.40;;;;;;;16.32;nan;100994.63;5046629;28;20186;-72
2021/09/17 04:19:54;;;;;;;4.13;1.90;;;;;;;16.53;nan;100995.28;5040621;28;20478;-72
2021/09/17 04:22:20;;;;;;;2.53;1.83;;;;;;;16.35;nan;100998.13;5040872;28;20552;-71
2021/09/17 04:24:45;;;;;;;3.07;1.97;;;;;;;16.39;nan;100992.81;5040081;28;20262;-73
2021/09/17 04:27:10;;;;;;;2.43;1.63;;;;;;;16.66;nan;100996.88;5040385;28;20181;-72
2021/09/17 04:29:36;;;;;;;4.37;3.30;;;;;;;16.78;nan;100998.53;5040327;28;20499;-72
2021/09/17 04:32:02;;;;;;;4.20;2.30;;;;;;;16.57;nan;100998.75;5040385;28;20193;-71
2021/09/17 04:34:27;;;;;;;2.37;1.50;;;;;;;16.26;nan;100993.81;5040156;28;20516;-71
2021/09/17 04:36:53;;;;;;;2.27;1.70;;;;;;;16.51;nan;101002.34;5040551;28;20471;-71
2021/09/17 04:39:18;;;;;;;2.80;2.60;;;;;;;16.59;nan;100996.97;5040061;28;20174;-71
2021/09/17 04:41:44;;;;;;;2.50;2.00;;;;;;;16.64;nan;101003.06;5039896;28;20228;-71
2021/09/17 04:44:09;;;;;;;1.87;1.63;;;;;;;16.66;nan;101003.94;5040252;28;20199;-72
2021/09/17 04:46:34;;;;;;;6.07;2.00;;;;;;;16.33;nan;101000.75;5039750;28;20224;-71
2021/09/17 04:48:59;;;;;;;2.00;1.50;;;;;;;16.36;nan;101002.47;5039831;28;20229;-71
2021/09/17 04:51:25;;;;;;;2.53;1.50;;;;;;;16.48;nan;101007.63;5040084;28;20560;-72
2021/09/17 04:53:50;;;;;;;2.77;2.57;;;;;;;16.30;nan;101011.31;5039561;28;20185;-72
2021/09/17 04:56:16;;;;;;;2.70;2.50;;;;;;;16.39;nan;101021.75;5039727;28;20240;-71
2021/09/17 04:58:41;;;;;;;4.23;1.93;;;;;;;16.50;nan;101022.50;5039648;28;20249;-72
2021/09/17 05:01:06;;;;;;;1.80;1.60;;;;;;;16.25;nan;101023.63;5039674;28;20431;-71
2021/09/17 05:03:32;;;;;;;2.00;1.70;;;;;;;16.20;nan;101033.34;5039570;28;20186;-71
2021/09/17 05:05:57;;;;;;;2.77;2.47;;;;;;;16.02;nan;101026.47;5041176;28;20416;-71
2021/09/17 05:08:22;;;;;;;2.20;1.53;;;;;;;15.97;nan;101034.41;5039441;28;20535;-71
2021/09/17 05:10:47;;;;;;;1.90;1.40;;;;;;;15.91;nan;101021.31;5039975;28;20193;-71
2021/09/17 05:13:13;;;;;;;3.00;1.73;;;;;;;16.33;nan;101027.06;5040694;28;20171;-72
2021/09/17 05:15:38;;;;;;;2.30;1.70;;;;;;;16.30;nan;101030.63;5040079;28;20174;-72
2021/09/17 05:18:04;;;;;;;2.27;1.87;;;;;;;15.97;nan;101026.53;5039923;28;20547;-72
2021/09/17 05:20:29;;;;;;;1.93;1.73;;;;;;;16.14;nan;101027.25;5039596;28;20298;-72
2021/09/17 05:22:54;;;;;;;2.93;1.70;;;;;;;16.17;nan;101024.59;5039160;28;20186;-71
2021/09/17 05:25:20;;;;;;;2.53;1.80;;;;;;;16.45;nan;101029.59;5039432;28;20170;-72
2021/09/17 05:27:45;;;;;;;5.00;1.93;;;;;;;16.42;nan;101026.97;5039098;28;20185;-71
2021/09/17 05:30:10;;;;;;;2.03;1.60;;;;;;;16.40;nan;101027.88;5038211;28;20217;-71
2021/09/17 05:32:36;;;;;;;5.83;1.50;;;;;;;15.81;nan;101036.28;5039250;28;20550;-71
2021/09/17 05:35:03;;;;;;;1.80;1.40;;;;;;;16.02;nan;101029.09;5038809;28;20212;-72
2021/09/17 05:37:28;;;;;;;3.40;2.70;;;;;;;15.89;nan;101031.84;5039140;28;20177;-71
2021/09/17 05:39:54;;;;;;;3.20;1.60;;;;;;;16.23;nan;101030.69;5039200;28;20380;-71
2021/09/17 05:42:20;;;;;;;2.47;2.07;;;;;;;16.16;nan;101032.50;5038165;28;20201;-71
2021/09/17 05:44:46;;;;;;;1.73;1.40;;;;;;;16.28;nan;101035.00;5040373;28;20236;-70
2021/09/17 05:47:11;;;;;;;2.40;1.27;;;;;;;16.07;nan;101030.81;5064203;28;20419;-71
2021/09/17 05:49:36;;;;;;;4.13;2.00;;;;;;;16.30;nan;101042.88;5052332;28;21162;-71
2021/09/17 05:52:02;;;;;;;2.30;2.10;;;;;;;16.40;nan;101039.28;5052502;28;20605;-71
2021/09/17 05:54:29;;;;;;;2.57;1.90;;;;;;;16.41;nan;101046.31;5078948;28;20323;-71
2021/09/17 05:56:54;;;;;;;1.70;1.53;;;;;;;15.94;nan;101044.94;5078502;28;20180;-72
2021/09/17 05:59:19;;;;;;;2.33;1.40;;;;;;;16.49;nan;101031.31;5078373;28;20429;-73
2021/09/17 06:01:45;;;;;;;2.07;1.73;;;;;;;16.32;nan;101041.13;5078820;28;20161;-73
2021/09/17 06:04:10;;;;;;;2.10;1.60;;;;;;;16.61;nan;101030.28;5078190;28;20172;-73
2021/09/17 06:06:35;;;;;;;1.63;1.43;;;;;;;16.49;nan;101028.69;5078353;28;20176;-73
2021/09/17 06:09:03;;;;;;;2.67;1.50;;;;;;;16.72;nan;101040.69;5079573;28;20301;-72
2021/09/17 06:11:28;;;;;;;2.07;1.70;;;;;;;16.70;nan;101037.22;5085417;28;20209;-71
2021/09/17 06:13:53;;;;;;;3.30;1.50;;;;;;;16.33;nan;101037.59;5080922;28;20419;-71
2021/09/17 06:16:19;;;;;;;1.77;1.57;;;;;;;16.23;nan;101046.47;5056737;28;20174;-72
2021/09/17 06:18:44;;;;;;;3.80;1.80;;;;;;;17.00;nan;101037.78;5052717;28;20191;-72
2021/09/17 06:21:10;;;;;;;5.53;2.60;;;;;;;17.38;nan;101038.19;5056836;28;20182;-72
2021/09/17 06:23:36;;;;;;;2.00;1.77;;;;;;;17.36;nan;101034.69;5059148;28;20173;-70
2021/09/17 06:26:01;;;;;;;1.90;1.57;;;;;;;17.39;nan;101038.16;5054516;28;20411;-72
2021/09/17 06:28:27;;;;;;;3.53;2.30;;;;;;;17.63;nan;101031.66;5057473;28;20227;-71
2021/09/17 06:30:52;;;;;;;1.93;1.60;;;;;;;17.44;nan;101035.44;5076316;28;20249;-70
2021/09/17 06:33:18;;;;;;;2.20;1.50;;;;;;;18.03;nan;101024.91;5073367;28;20181;-70
2021/09/17 06:35:45;;;;;;;2.03;1.80;;;;;;;17.95;nan;101021.53;5058690;28;20186;-70
2021/09/17 06:38:10;;;;;;;5.27;2.93;;;;;;;18.73;nan;101021.88;5058381;28;20168;-71
2021/09/17 06:40:36;;;;;;;2.00;1.70;;;;;;;18.88;nan;101020.75;5065210;28;20407;-71
2021/09/17 06:43:01;;;;;;;2.20;2.00;;;;;;;19.42;nan;101011.66;5078426;28;20212;-71
2021/09/17 06:45:27;;;;;;;2.00;1.57;;;;;;;20.62;nan;101013.09;5077932;28;20173;-70
2021/09/17 06:47:54;;;;;;;2.63;1.50;;;;;;;22.60;nan;101014.81;5066375;28;20271;-70
2021/09/17 06:50:22;;;;;;;2.60;1.60;;;;;;;23.58;nan;101013.81;5057688;28;20215;-70
2021/09/17 06:52:48;;;;;;;3.30;2.40;;;;;;;22.70;nan;101021.56;5057423;28;20650;-71
2021/09/17 06:55:32;;;;;;;2.53;1.83;;;;;;;20.42;nan;101024.22;5064529;28;20459;-71
2021/09/17 06:58:00;;;;;;;2.80;1.67;;;;;;;20.31;nan;101031.56;5076804;28;20429;-71
2021/09/17 07:00:27;;;;;;;2.23;1.80;;;;;;;22.16;nan;101023.44;5078113;28;20411;-71
2021/09/17 07:02:53;;;;;;;3.30;1.50;;;;;;;23.27;nan;101017.69;5077816;28;20419;-71
2021/09/17 07:05:20;;;;;;;2.30;1.60;;;;;;;23.36;nan;101015.53;5078238;28;20422;-71
2021/09/17 07:07:45;;;;;;;2.97;2.30;;;;;;;25.11;nan;101013.41;5078549;28;20487;-71
2021/09/17 07:10:12;;;;;;;2.20;2.00;;;;;;;24.18;nan;101014.00;5077616;28;20451;-71
2021/09/17 07:12:38;;;;;;;2.53;2.33;;;;;;;25.01;nan;101012.13;5077764;28;20169;-71
2021/09/17 07:15:04;;;;;;;3.40;3.10;;;;;;;25.67;nan;101013.47;5077585;28;20639;-70
2021/09/17 07:17:30;;;;;;;3.83;1.83;;;;;;;25.09;nan;101014.44;5077035;28;20279;-71
2021/09/17 07:19:56;;;;;;;2.43;1.70;;;;;;;24.97;nan;101013.22;5077384;28;20482;-71
2021/09/17 07:22:21;;;;;;;3.10;2.80;;;;;;;25.67;nan;101014.34;5078120;28;20227;-71
2021/09/17 07:24:47;;;;;;;2.57;2.00;;;;;;;24.35;nan;101008.81;5077483;28;20473;-70
2021/09/17 07:27:13;;;;;;;2.30;1.70;;;;;;;24.42;nan;101016.53;5077345;28;20173;-71
2021/09/17 07:29:38;;;;;;;2.37;1.90;;;;;;;24.88;nan;101023.38;5077741;28;20433;-72
2021/09/17 07:32:04;;;;;;;2.73;1.70;;;;;;;25.50;nan;101017.81;5077136;28;20526;-70
2021/09/17 07:34:30;;;;;;;2.90;2.07;;;;;;;25.73;nan;101007.81;5078976;28;20169;-71
2021/09/17 07:36:55;;;;;;;3.07;2.40;;;;;;;24.87;nan;101020.78;5081126;28;20719;-71
2021/09/17 07:39:21;;;;;;;2.20;2.00;;;;;;;24.80;nan;101012.19;5080913;28;20223;-72
2021/09/17 07:41:46;;;;;;;3.07;2.27;;;;;;;24.20;nan;101023.66;5081065;28;20260;-71
2021/09/17 07:44:12;;;;;;;2.53;2.03;;;;;;;25.66;nan;101015.25;5081047;28;20430;-71
2021/09/17 07:46:37;;;;;;;2.30;2.10;;;;;;;23.94;nan;101024.78;5080742;28;20183;-72
2021/09/17 07:49:02;;;;;;;2.00;1.80;;;;;;;24.53;nan;101022.25;5079897;28;20173;-72
2021/09/17 07:51:28;;;;;;;2.77;2.00;;;;;;;25.24;nan;101021.72;5081132;28;20355;-72
2021/09/17 07:53:53;;;;;;;2.03;1.83;;;;;;;24.13;nan;101016.88;5080670;28;20429;-74
2021/09/17 07:56:19;;;;;;;2.90;2.70;;;;;;;24.68;nan;101021.59;5080751;28;20525;-70
2021/09/17 07:58:44;;;;;;;3.03;2.50;;;;;;;25.00;nan;101027.25;5080690;28;20258;-71
2021/09/17 08:01:09;;;;;;;2.77;2.40;;;;;;;24.81;nan;101023.72;5080696;28;20260;-71
2021/09/17 08:03:35;;;;;;;2.03;1.80;;;;;;;26.04;nan;101022.34;5080510;28;20208;-70
2021/09/17 08:06:02;;;;;;;4.03;2.30;;;;;;;26.26;nan;101023.91;5077861;28;20277;-70
2021/09/17 08:08:28;;;;;;;1.80;1.60;;;;;;;24.92;nan;101026.75;5057445;28;20424;-71
2021/09/17 08:10:54;;;;;;;2.20;2.00;;;;;;;26.62;nan;101026.44;5053804;28;20460;-70
2021/09/17 08:13:20;;;;;;;3.73;1.80;;;;;;;24.53;nan;101033.78;5050299;28;20447;-70
2021/09/17 08:15:45;;;;;;;1.97;1.77;;;;;;;23.93;nan;101039.00;5052384;28;20833;-69
2021/09/17 08:18:11;;;;;;;1.60;1.30;;;;;;;23.72;nan;101043.41;5051145;28;20205;-70
2021/09/17 08:20:40;;;;;;;2.70;1.60;;;;;;;23.94;nan;101042.56;5051116;28;20448;-71
2021/09/17 08:23:06;;;;;;;1.80;1.63;;;;;;;22.97;nan;101044.50;5053143;28;20192;-70
2021/09/17 08:25:31;;;;;;;2.13;1.93;;;;;;;22.25;nan;101062.06;5051621;28;20409;-71
2021/09/17 08:27:56;;;;;;;1.70;1.40;;;;;;;21.53;nan;101065.28;5055950;28;20192;-70
2021/09/17 08:30:22;;;;;;;2.67;2.47;;;;;;;21.23;nan;101062.63;5059923;28;20208;-72
2021/09/17 08:32:47;;;;;;;1.83;1.40;;;;;;;21.35;nan;101066.66;5059505;28;20184;-72
2021/09/17 08:35:13;;;;;;;2.00;1.80;;;;;;;21.26;nan;101070.47;5058960;28;20177;-71
2021/09/17 08:37:39;;;;;;;1.87;1.70;;;;;;;21.16;nan;101067.22;5059941;28;20169;-69
2021/09/17 08:40:06;;;;;;;3.63;1.60;;;;;;;20.70;nan;101063.22;5060001;28;20244;-67
2021/09/17 08:42:32;;;;;;;3.10;1.60;;;;;;;20.19;nan;101064.53;5059905;28;20518;-69
2021/09/17 08:44:57;;;;;;;2.43;1.60;;;;;;;20.41;nan;101064.84;5058843;28;20439;-70
2021/09/17 08:47:23;;;;;;;7.30;2.20;;;;;;;20.24;nan;101067.94;5059653;28;20411;-70
2021/09/17 08:49:48;;;;;;;2.70;1.53;;;;;;;20.25;nan;101064.34;5059344;28;20216;-69
2021/09/17 08:52:14;;;;;;;5.00;4.50;;;;;;;20.17;nan;101071.63;5062546;28;20173;-69
2021/09/17 08:54:39;;;;;;;1.60;1.50;;;;;;;20.07;nan;101073.63;5064070;28;20178;-71
2021/09/17 08:57:05;;;;;;;1.80;1.60;;;;;;;20.37;nan;101076.41;5061914;28;20174;-70
2021/09/17 08:59:30;;;;;;;2.40;1.40;;;;;;;20.64;nan;101080.13;5058745;28;20226;-70
2021/09/17 09:01:55;;;;;;;4.17;1.50;;;;;;;20.46;nan;101080.63;5059612;28;20265;-70
2021/09/17 09:04:30;;;;;;;2.00;1.50;;;;;;;20.57;nan;101083.00;5058975;28;20537;-70
2021/09/17 09:07:03;;;;;;;1.60;1.40;;;;;;;21.77;nan;101073.38;5061749;28;20176;-69
2021/09/17 09:09:28;;;;;;;3.90;1.67;;;;;;;21.79;nan;101072.41;5079164;28;20874;-71
2021/09/17 09:11:54;;;;;;;2.10;1.50;;;;;;;21.99;nan;101076.22;5078964;28;20450;-70
2021/09/17 09:14:20;;;;;;;2.20;1.57;;;;;;;22.36;nan;101075.88;5079009;28;20559;-70
2021/09/17 09:16:50;;;;;;;1.97;1.77;;;;;;;23.03;nan;101079.72;5079052;28;20255;-69
2021/09/17 09:19:26;;;;;;;2.07;1.63;;;;;;;22.21;nan;101073.72;5079120;28;20530;-69
2021/09/17 09:22:01;;;;;;;3.10;1.70;;;;;;;23.49;nan;101070.91;5078627;28;20414;-69
2021/09/17 09:24:27;;;;;;;1.73;1.40;;;;;;;22.40;nan;101079.28;5078731;28;20816;-69
2021/09/17 09:27:15;;;;;;;2.40;2.20;;;;;;;22.88;nan;101074.97;5053453;28;20434;-69
2021/09/17 09:29:43;;;;;;;2.77;2.10;;;;;;;22.63;nan;101074.97;5058949;28;20170;-69
2021/09/17 09:32:30;;;;;;;1.90;1.70;;;;;;;22.73;nan;101076.34;5058732;28;20481;-71
2021/09/17 09:35:05;;;;;;;2.20;1.97;;;;;;;23.04;nan;101075.25;5057683;28;20416;-70
2021/09/17 09:37:38;;;;;;;3.17;2.00;;;;;;;21.88;nan;101071.25;5058669;28;20907;-68
2021/09/17 09:40:07;;;;;;;3.37;1.70;;;;;;;22.17;nan;101077.38;5053252;28;20440;-69
2021/09/17 09:42:40;;;;;;;2.00;1.70;;;;;;;24.21;nan;101069.81;5038310;28;20741;-69
2021/09/17 09:45:10;;;;;;;1.93;1.73;;;;;;;24.90;nan;101060.63;5038409;28;20413;-69
2021/09/17 09:47:37;;;;;;;4.30;1.93;;;;;;;23.36;nan;101070.53;5038214;28;20405;-69
2021/09/17 09:50:10;;;;;;;2.27;2.07;;;;;;;21.99;nan;101074.44;5046368;28;20408;-70
2021/09/17 09:52:36;;;;;;;2.13;1.50;;;;;;;21.09;nan;101081.56;5047776;28;20453;-70
2021/09/17 09:55:03;;;;;;;1.93;1.70;;;;;;;20.88;nan;101077.75;5051797;28;20805;-69
2021/09/17 09:57:30;;;;;;;3.40;1.87;;;;;;;20.83;nan;101059.31;5057849;28;20288;-69
2021/09/17 09:59:58;;;;;;;1.90;1.70;;;;;;;20.01;nan;101079.06;5058133;28;20555;-70
2021/09/17 10:02:24;;;;;;;2.87;2.50;;;;;;;20.28;nan;101076.66;5058068;28;20419;-69
2021/09/17 10:04:50;;;;;;;3.13;2.07;;;;;;;20.28;nan;101072.25;5058182;28;20817;-69
2021/09/17 10:07:17;;;;;;;2.83;2.40;;;;;;;20.49;nan;101062.00;5057332;28;20267;-70
2021/09/17 10:09:43;;;;;;;2.43;2.20;;;;;;;20.45;nan;101076.22;5058346;28;20165;-70
2021/09/17 10:12:11;;;;;;;1.93;1.43;;;;;;;20.39;nan;101069.31;5058030;28;20704;-69
2021/09/17 10:14:37;;;;;;;1.93;1.73;;;;;;;19.99;nan;101070.31;5057791;28;20416;-70
2021/09/17 10:17:06;;;;;;;2.63;1.80;;;;;;;20.14;nan;101066.41;5060593;28;20537;-69
2021/09/17 10:19:31;;;;;;;2.43;2.23;;;;;;;19.59;nan;101076.50;5073715;28;20455;-69
2021/09/17 10:21:58;;;;;;;3.40;2.23;;;;;;;20.27;nan;101065.22;5064208;28;20447;-69
2021/09/17 10:24:26;;;;;;;2.73;2.13;;;;;;;19.78;nan;101072.53;5067264;28;20181;-69
2021/09/17 10:27:05;;;;;;;2.07;1.67;;;;;;;19.13;nan;101081.00;5070795;28;20450;-69
2021/09/17 10:29:39;;;;;;;2.90;2.27;;;;;;;19.90;nan;101067.88;5060623;28;20420;-71
2021/09/17 10:32:07;;;;;;;2.43;1.67;;;;;;;20.17;nan;101064.56;5070044;28;20471;-67
2021/09/17 10:34:41;;;;;;;2.43;2.23;;;;;;;19.91;nan;101075.78;5068880;28;20430;-70
2021/09/17 10:37:09;;;;;;;2.80;2.30;;;;;;;19.37;nan;101084.91;5061532;28;20466;-71
2021/09/17 10:39:34;;;;;;;4.00;2.10;;;;;;;19.55;nan;101082.75;5072985;28;20478;-72
2021/09/17 10:42:15;;;;;;;2.40;2.20;;;;;;;19.64;nan;101080.78;5063207;28;20804;-71
2021/09/17 10:45:02;;;;;;;4.20;2.93;;;;;;;18.77;nan;101086.94;5065113;28;20606;-71
2021/09/17 10:47:40;;;;;;;2.60;2.30;;;;;;;18.76;nan;101094.91;5073707;28;20413;-71
2021/09/17 10:50:12;;;;;;;2.30;2.10;;;;;;;19.22;nan;101087.88;5064524;28;20425;-71
2021/09/17 10:52:39;;;;;;;2.77;2.07;;;;;;;19.14;nan;101080.97;5065164;28;20886;-71
2021/09/17 10:55:06;;;;;;;2.73;2.50;;;;;;;19.04;nan;101083.81;5037441;28;20454;-71
2021/09/17 10:57:31;;;;;;;2.00;1.80;;;;;;;18.74;nan;101081.75;5037634;28;20384;-70
2021/09/17 10:59:59;;;;;;;3.03;2.43;;;;;;;18.93;nan;101078.75;5036493;28;20540;-72
2021/09/17 11:02:41;;;;;;;3.20;2.40;;;;;;;18.72;nan;101080.88;5037746;28;20175;-71
2021/09/17 11:05:17;;;;;;;3.13;2.03;;;;;;;18.67;nan;101086.25;5037111;28;20700;-71
2021/09/17 11:07:42;;;;;;;2.73;2.23;;;;;;;18.51;nan;101083.03;5037732;28;20452;-71
2021/09/17 11:10:23;;;;;;;2.83;2.63;;;;;;;18.50;nan;101083.91;5040064;28;22328;-72
2021/09/17 11:12:49;;;;;;;2.90;2.47;;;;;;;18.72;nan;101083.53;5041224;28;20174;-71
2021/09/17 11:15:18;;;;;;;4.87;4.30;;;;;;;18.87;nan;101082.34;5040987;28;20799;-71
2021/09/17 11:17:46;;;;;;;5.00;3.10;;;;;;;18.76;nan;101082.56;5041301;28;20174;-72
2021/09/17 11:20:31;;;;;;;2.37;2.17;;;;;;;18.71;nan;101080.91;5041544;28;20401;-71
2021/09/17 11:23:04;;;;;;;3.17;2.87;;;;;;;18.59;nan;101082.91;5041008;28;20849;-71
2021/09/17 11:25:35;;;;;;;3.03;2.70;;;;;;;19.09;nan;101082.84;5041025;28;20408;-72
2021/09/17 11:28:03;;;;;;;2.73;2.50;;;;;;;18.64;nan;101080.16;5041069;28;20841;-72
2021/09/17 11:30:30;;;;;;;2.77;2.10;;;;;;;18.84;nan;101088.56;5041029;28;20498;-72
2021/09/17 11:32:55;;;;;;;2.40;2.20;;;;;;;18.65;nan;101088.03;5042765;28;20435;-70
2021/09/17 11:35:21;;;;;;;2.37;1.90;;;;;;;18.47;nan;101093.69;5056497;28;20510;-70
2021/09/17 11:37:52;;;;;;;1.90;1.70;;;;;;;18.70;nan;101085.34;5062428;28;20561;-69